sensor_id;sensor_type;location;lat;lon;timestamp;pressure;altitude;pressure_sealevel;temperature;humidity
10476;BME280;26166;48.264;11.436;2023-06-26T00:02:49;96268.06;;;19.81;57.36
10476;BME280;26166;48.264;11.436;2023-06-26T00:05:49;96273.41;;;19.81;57.17
10476;BME280;26166;48.264;11.436;2023-06-26T00:08:50;96273.03;;;19.78;57.21
10476;BME280;26166;48.264;11.436;2023-06-26T00:11:50;96270.59;;;19.76;57.29
10476;BME280;26166;48.264;11.436;2023-06-26T00:14:51;96273.50;;;19.75;57.30
10476;BME280;26166;48.264;11.436;2023-06-26T00:17:51;96268.16;;;19.75;57.62
10476;BME280;26166;48.264;11.436;2023-06-26T00:20:52;96268.97;;;19.75;57.32
10476;BME280;26166;48.264;11.436;2023-06-26T00:23:52;96278.00;;;19.74;57.55
10476;BME280;26166;48.264;11.436;2023-06-26T00:26:52;96271.50;;;19.70;57.82
10476;BME280;26166;48.264;11.436;2023-06-26T00:29:52;96271.50;;;19.70;57.73
10476;BME280;26166;48.264;11.436;2023-06-26T00:32:53;96287.50;;;19.70;58.00
10476;BME280;26166;48.264;11.436;2023-06-26T00:35:53;96278.66;;;19.70;58.05
10476;BME280;26166;48.264;11.436;2023-06-26T00:38:53;96273.31;;;19.70;57.97
10476;BME280;26166;48.264;11.436;2023-06-26T00:41:53;96279.69;;;19.69;58.03
10476;BME280;26166;48.264;11.436;2023-06-26T00:44:54;96282.59;;;19.67;58.28
10476;BME280;26166;48.264;11.436;2023-06-26T00:47:54;96272.97;;;19.66;58.24
10476;BME280;26166;48.264;11.436;2023-06-26T00:50:55;96272.97;;;19.66;57.97
10476;BME280;26166;48.264;11.436;2023-06-26T00:53:56;96266.63;;;19.67;58.13
10476;BME280;26166;48.264;11.436;2023-06-26T00:56:56;96278.88;;;19.68;57.93
10476;BME280;26166;48.264;11.436;2023-06-26T00:59:56;96273.56;;;19.68;58.14
10476;BME280;26166;48.264;11.436;2023-06-26T01:02:57;96275.19;;;19.69;57.84
10476;BME280;26166;48.264;11.436;2023-06-26T01:05:59;96272.31;;;19.71;57.93
10476;BME280;26166;48.264;11.436;2023-06-26T01:08:59;96276.84;;;19.70;57.93
10476;BME280;26166;48.264;11.436;2023-06-26T01:11:59;96271.50;;;19.70;58.14
10476;BME280;26166;48.264;11.436;2023-06-26T01:15:00;96267.19;;;19.69;58.17
10476;BME280;26166;48.264;11.436;2023-06-26T01:18:00;96264.75;;;19.68;58.24
10476;BME280;26166;48.264;11.436;2023-06-26T01:21:03;96271.13;;;19.67;58.31
10476;BME280;26166;48.264;11.436;2023-06-26T01:24:05;96274.00;;;19.65;58.39
10476;BME280;26166;48.264;11.436;2023-06-26T01:27:09;96270.53;;;19.64;58.35
10476;BME280;26166;48.264;11.436;2023-06-26T01:30:11;96268.66;;;19.65;58.31
10476;BME280;26166;48.264;11.436;2023-06-26T01:33:15;96266.25;;;19.63;58.22
10476;BME280;26166;48.264;11.436;2023-06-26T01:36:15;96271.56;;;19.63;58.31
10476;BME280;26166;48.264;11.436;2023-06-26T01:39:15;96260.91;;;19.63;58.15
10476;BME280;26166;48.264;11.436;2023-06-26T01:42:16;96262.75;;;19.63;58.21
10476;BME280;26166;48.264;11.436;2023-06-26T01:45:24;96261.72;;;19.64;58.10
10476;BME280;26166;48.264;11.436;2023-06-26T01:48:28;96259.06;;;19.64;58.09
10476;BME280;26166;48.264;11.436;2023-06-26T01:51:31;96261.72;;;19.64;58.23
10476;BME280;26166;48.264;11.436;2023-06-26T01:54:35;96255.59;;;19.63;58.30
10476;BME280;26166;48.264;11.436;2023-06-26T01:57:37;96256.81;;;19.61;58.29
10476;BME280;26166;48.264;11.436;2023-06-26T02:00:39;96255.19;;;19.60;58.47
10476;BME280;26166;48.264;11.436;2023-06-26T02:03:39;96258.06;;;19.58;58.42
10476;BME280;26166;48.264;11.436;2023-06-26T02:06:40;96251.13;;;19.57;58.44
10476;BME280;26166;48.264;11.436;2023-06-26T02:09:40;96259.13;;;19.57;58.54
10476;BME280;26166;48.264;11.436;2023-06-26T02:12:40;96254.81;;;19.56;58.50
10476;BME280;26166;48.264;11.436;2023-06-26T02:15:40;96255.66;;;19.57;58.48
10476;BME280;26166;48.264;11.436;2023-06-26T02:18:41;96254.00;;;19.56;58.35
10476;BME280;26166;48.264;11.436;2023-06-26T02:21:41;96264.66;;;19.56;58.38
10476;BME280;26166;48.264;11.436;2023-06-26T02:24:42;96269.97;;;19.56;58.40
10476;BME280;26166;48.264;11.436;2023-06-26T02:27:42;96267.31;;;19.56;58.45
10476;BME280;26166;48.264;11.436;2023-06-26T02:30:42;96269.16;;;19.55;58.54
10476;BME280;26166;48.264;11.436;2023-06-26T02:33:43;96256.88;;;19.54;58.61
10476;BME280;26166;48.264;11.436;2023-06-26T02:36:45;96257.69;;;19.55;58.60
10476;BME280;26166;48.264;11.436;2023-06-26T02:39:45;96264.06;;;19.54;58.65
10476;BME280;26166;48.264;11.436;2023-06-26T02:42:45;96265.69;;;19.55;58.61
10476;BME280;26166;48.264;11.436;2023-06-26T02:45:45;96261.41;;;19.54;58.66
10476;BME280;26166;48.264;11.436;2023-06-26T02:48:46;96261.41;;;19.54;58.75
10476;BME280;26166;48.264;11.436;2023-06-26T02:51:46;96264.50;;;19.51;58.83
10476;BME280;26166;48.264;11.436;2023-06-26T02:54:46;96259.19;;;19.51;58.85
10476;BME280;26166;48.264;11.436;2023-06-26T02:57:46;96264.31;;;19.52;58.87
10476;BME280;26166;48.264;11.436;2023-06-26T03:00:46;96267.78;;;19.53;58.83
10476;BME280;26166;48.264;11.436;2023-06-26T03:03:47;96261.63;;;19.52;59.00
10476;BME280;26166;48.264;11.436;2023-06-26T03:06:47;96262.44;;;19.53;58.86
10476;BME280;26166;48.264;11.436;2023-06-26T03:09:47;96265.94;;;19.53;58.96
10476;BME280;26166;48.264;11.436;2023-06-26T03:12:48;96265.69;;;19.55;58.84
10476;BME280;26166;48.264;11.436;2023-06-26T03:15:48;96267.31;;;19.56;58.83
10476;BME280;26166;48.264;11.436;2023-06-26T03:18:48;96266.50;;;19.55;59.04
10476;BME280;26166;48.264;11.436;2023-06-26T03:21:48;96253.19;;;19.55;58.96
10476;BME280;26166;48.264;11.436;2023-06-26T03:24:49;96263.03;;;19.55;58.99
10476;BME280;26166;48.264;11.436;2023-06-26T03:27:49;96256.88;;;19.54;59.05
10476;BME280;26166;48.264;11.436;2023-06-26T03:30:49;96273.09;;;19.53;58.99
10476;BME280;26166;48.264;11.436;2023-06-26T03:33:49;96264.06;;;19.54;58.97
10476;BME280;26166;48.264;11.436;2023-06-26T03:36:50;96258.97;;;19.52;59.08
10476;BME280;26166;48.264;11.436;2023-06-26T03:39:50;96265.13;;;19.53;58.86
10476;BME280;26166;48.264;11.436;2023-06-26T03:42:50;96261.84;;;19.51;59.05
10476;BME280;26166;48.264;11.436;2023-06-26T03:45:50;96267.78;;;19.53;58.98
10476;BME280;26166;48.264;11.436;2023-06-26T03:48:50;96261.84;;;19.51;58.95
10476;BME280;26166;48.264;11.436;2023-06-26T03:51:51;96265.13;;;19.53;58.86
10476;BME280;26166;48.264;11.436;2023-06-26T03:54:51;96270.44;;;19.53;58.95
10476;BME280;26166;48.264;11.436;2023-06-26T03:57:51;96270.44;;;19.53;58.85
10476;BME280;26166;48.264;11.436;2023-06-26T04:00:51;96263.47;;;19.52;58.96
10476;BME280;26166;48.264;11.436;2023-06-26T04:03:51;96263.47;;;19.52;58.91
10476;BME280;26166;48.264;11.436;2023-06-26T04:06:52;96264.50;;;19.51;58.96
10476;BME280;26166;48.264;11.436;2023-06-26T04:09:52;96266.38;;;19.50;59.02
10476;BME280;26166;48.264;11.436;2023-06-26T04:12:52;96265.56;;;19.50;58.83
10476;BME280;26166;48.264;11.436;2023-06-26T04:15:53;96265.56;;;19.50;58.99
10476;BME280;26166;48.264;11.436;2023-06-26T04:18:53;96259.41;;;19.49;58.98
10476;BME280;26166;48.264;11.436;2023-06-26T04:21:55;96265.56;;;19.50;58.93
10476;BME280;26166;48.264;11.436;2023-06-26T04:24:56;96265.56;;;19.50;58.97
10476;BME280;26166;48.264;11.436;2023-06-26T04:27:56;96265.56;;;19.50;58.95
10476;BME280;26166;48.264;11.436;2023-06-26T04:30:56;96260.22;;;19.50;58.88
10476;BME280;26166;48.264;11.436;2023-06-26T04:33:57;96265.56;;;19.50;59.04
10476;BME280;26166;48.264;11.436;2023-06-26T04:36:57;96270.88;;;19.50;58.80
10476;BME280;26166;48.264;11.436;2023-06-26T04:39:58;96280.72;;;19.49;58.68
10476;BME280;26166;48.264;11.436;2023-06-26T04:42:58;96268.22;;;19.50;58.28
10476;BME280;26166;48.264;11.436;2023-06-26T04:45:58;96274.59;;;19.49;58.03
10476;BME280;26166;48.264;11.436;2023-06-26T04:48:58;96283.38;;;19.49;58.06
10476;BME280;26166;48.264;11.436;2023-06-26T04:51:59;96270.88;;;19.50;57.94
10476;BME280;26166;48.264;11.436;2023-06-26T04:55:00;96266.59;;;19.49;57.80
10476;BME280;26166;48.264;11.436;2023-06-26T04:58:00;96269.25;;;19.49;57.78
10476;BME280;26166;48.264;11.436;2023-06-26T05:01:00;96268.22;;;19.50;57.66
10476;BME280;26166;48.264;11.436;2023-06-26T05:04:00;96268.22;;;19.50;57.67
10476;BME280;26166;48.264;11.436;2023-06-26T05:07:00;96263.47;;;19.52;57.42
10476;BME280;26166;48.264;11.436;2023-06-26T05:10:01;96266.38;;;19.50;57.23
10476;BME280;26166;48.264;11.436;2023-06-26T05:13:01;96267.16;;;19.51;57.19
10476;BME280;26166;48.264;11.436;2023-06-26T05:16:01;96267.97;;;19.51;56.99
10476;BME280;26166;48.264;11.436;2023-06-26T05:19:02;96270.66;;;19.51;56.98
10476;BME280;26166;48.264;11.436;2023-06-26T05:22:02;96268.59;;;19.53;56.73
10476;BME280;26166;48.264;11.436;2023-06-26T05:25:08;96260.59;;;19.53;56.49
10476;BME280;26166;48.264;11.436;2023-06-26T05:28:09;96264.06;;;19.54;56.53
10476;BME280;26166;48.264;11.436;2023-06-26T05:31:10;96266.75;;;19.54;56.43
10476;BME280;26166;48.264;11.436;2023-06-26T05:34:11;96269.16;;;19.55;56.35
10476;BME280;26166;48.264;11.436;2023-06-26T05:37:11;96277.41;;;19.54;56.38
10476;BME280;26166;48.264;11.436;2023-06-26T05:40:14;96278.19;;;19.54;56.41
10476;BME280;26166;48.264;11.436;2023-06-26T05:43:15;96280.88;;;19.54;56.42
10476;BME280;26166;48.264;11.436;2023-06-26T05:46:15;96281.44;;;19.56;56.42
10476;BME280;26166;48.264;11.436;2023-06-26T05:49:15;96280.63;;;19.56;56.50
10476;BME280;26166;48.264;11.436;2023-06-26T05:52:16;96276.97;;;19.57;56.35
10476;BME280;26166;48.264;11.436;2023-06-26T05:55:16;96275.91;;;19.58;56.43
10476;BME280;26166;48.264;11.436;2023-06-26T05:58:16;96273.25;;;19.58;56.53
10476;BME280;26166;48.264;11.436;2023-06-26T06:01:18;96265.84;;;19.60;56.35
10476;BME280;26166;48.264;11.436;2023-06-26T06:04:19;96261.13;;;19.62;56.48
10476;BME280;26166;48.264;11.436;2023-06-26T06:07:19;96274.47;;;19.62;56.57
10476;BME280;26166;48.264;11.436;2023-06-26T06:10:20;96270.75;;;19.63;56.63
10476;BME280;26166;48.264;11.436;2023-06-26T06:13:20;96266.25;;;19.63;56.66
10476;BME280;26166;48.264;11.436;2023-06-26T06:16:20;96263.34;;;19.65;56.69
10476;BME280;26166;48.264;11.436;2023-06-26T06:19:21;96262.91;;;19.68;56.45
10476;BME280;26166;48.264;11.436;2023-06-26T06:22:21;96264.53;;;19.69;56.59
10476;BME280;26166;48.264;11.436;2023-06-26T06:25:21;96260.84;;;19.70;56.44
10476;BME280;26166;48.264;11.436;2023-06-26T06:28:21;96259.00;;;19.71;56.45
10476;BME280;26166;48.264;11.436;2023-06-26T06:31:21;96253.44;;;19.72;56.64
10476;BME280;26166;48.264;11.436;2023-06-26T06:34:22;96263.03;;;19.73;56.56
10476;BME280;26166;48.264;11.436;2023-06-26T06:37:22;96261.19;;;19.74;56.65
10476;BME280;26166;48.264;11.436;2023-06-26T06:40:22;96258.31;;;19.75;56.72
10476;BME280;26166;48.264;11.436;2023-06-26T06:43:22;96260.75;;;19.77;56.56
10476;BME280;26166;48.264;11.436;2023-06-26T06:46:23;96261.56;;;19.77;56.69
10476;BME280;26166;48.264;11.436;2023-06-26T06:49:23;96261.31;;;19.79;56.64
10476;BME280;26166;48.264;11.436;2023-06-26T06:52:23;96260.50;;;19.78;56.90
10476;BME280;26166;48.264;11.436;2023-06-26T06:55:23;96264.81;;;19.79;56.77
10476;BME280;26166;48.264;11.436;2023-06-26T06:58:25;96260.50;;;19.78;57.05
10476;BME280;26166;48.264;11.436;2023-06-26T07:01:25;96257.84;;;19.78;57.02
10476;BME280;26166;48.264;11.436;2023-06-26T07:04:25;96259.50;;;19.79;56.93
10476;BME280;26166;48.264;11.436;2023-06-26T07:07:28;96259.50;;;19.79;56.89
10476;BME280;26166;48.264;11.436;2023-06-26T07:10:29;96267.25;;;19.81;56.88
10476;BME280;26166;48.264;11.436;2023-06-26T07:13:29;96263.56;;;19.82;56.82
10476;BME280;26166;48.264;11.436;2023-06-26T07:16:29;96267.63;;;19.84;56.76
10476;BME280;26166;48.264;11.436;2023-06-26T07:19:29;96263.09;;;19.85;57.02
10476;BME280;26166;48.264;11.436;2023-06-26T07:22:29;96256.50;;;19.87;57.93
10476;BME280;26166;48.264;11.436;2023-06-26T07:25:30;96261.38;;;19.90;58.45
10476;BME280;26166;48.264;11.436;2023-06-26T07:28:30;96256.66;;;19.93;58.00
10476;BME280;26166;48.264;11.436;2023-06-26T07:31:30;96253.53;;;19.96;57.90
10476;BME280;26166;48.264;11.436;2023-06-26T07:34:30;96246.94;;;19.98;57.62
10476;BME280;26166;48.264;11.436;2023-06-26T07:37:30;96260.84;;;20.00;57.37
10476;BME280;26166;48.264;11.436;2023-06-26T07:40:30;96264.13;;;20.02;57.08
10476;BME280;26166;48.264;11.436;2023-06-26T07:43:31;96249.97;;;20.02;57.13
10476;BME280;26166;48.264;11.436;2023-06-26T07:46:31;96248.94;;;20.03;56.86
10476;BME280;26166;48.264;11.436;2023-06-26T07:49:31;96257.50;;;20.05;56.92
10476;BME280;26166;48.264;11.436;2023-06-26T07:52:31;96254.25;;;20.03;56.66
10476;BME280;26166;48.264;11.436;2023-06-26T07:55:31;96252.41;;;20.03;56.68
10476;BME280;26166;48.264;11.436;2023-06-26T07:58:32;96249.75;;;20.03;56.76
10476;BME280;26166;48.264;11.436;2023-06-26T08:01:32;96251.34;;;20.04;56.78
10476;BME280;26166;48.264;11.436;2023-06-26T08:04:32;96242.53;;;20.04;56.86
10476;BME280;26166;48.264;11.436;2023-06-26T08:07:33;96246.63;;;20.06;57.00
10476;BME280;26166;48.264;11.436;2023-06-26T08:10:33;96245.34;;;20.09;56.88
10476;BME280;26166;48.264;11.436;2023-06-26T08:13:34;96244.31;;;20.10;56.84
10476;BME280;26166;48.264;11.436;2023-06-26T08:16:34;96239.56;;;20.12;56.75
10476;BME280;26166;48.264;11.436;2023-06-26T08:19:35;96240.13;;;20.14;56.63
10476;BME280;26166;48.264;11.436;2023-06-26T08:22:35;96240.97;;;20.14;56.63
10476;BME280;26166;48.264;11.436;2023-06-26T08:25:35;96238.88;;;20.16;56.34
10476;BME280;26166;48.264;11.436;2023-06-26T08:28:35;96232.75;;;20.16;56.23
10476;BME280;26166;48.264;11.436;2023-06-26T08:31:35;96234.34;;;20.17;56.49
10476;BME280;26166;48.264;11.436;2023-06-26T08:34:36;96236.47;;;20.15;56.49
10476;BME280;26166;48.264;11.436;2023-06-26T08:37:36;96235.66;;;20.14;56.67
10476;BME280;26166;48.264;11.436;2023-06-26T08:40:36;96238.53;;;20.13;56.85
10476;BME280;26166;48.264;11.436;2023-06-26T08:43:37;96231.13;;;20.15;56.93
10476;BME280;26166;48.264;11.436;2023-06-26T08:46:37;96231.13;;;20.15;57.03
10476;BME280;26166;48.264;11.436;2023-06-26T08:49:42;96233.56;;;20.16;56.91
10476;BME280;26166;48.264;11.436;2023-06-26T08:52:46;96227.41;;;20.16;57.03
10476;BME280;26166;48.264;11.436;2023-06-26T08:55:52;96231.94;;;20.15;57.13
10476;BME280;26166;48.264;11.436;2023-06-26T08:58:53;96226.34;;;20.17;57.44
10476;BME280;26166;48.264;11.436;2023-06-26T09:01:53;96217.91;;;20.20;57.07
10476;BME280;26166;48.264;11.436;2023-06-26T09:04:54;96223.81;;;20.22;56.99
10476;BME280;26166;48.264;11.436;2023-06-26T09:07:54;96220.94;;;20.24;56.76
10476;BME280;26166;48.264;11.436;2023-06-26T09:10:57;96210.03;;;20.25;56.50
10476;BME280;26166;48.264;11.436;2023-06-26T09:13:59;96220.47;;;20.27;56.29
10476;BME280;26166;48.264;11.436;2023-06-26T09:16:59;96211.66;;;20.26;56.20
10476;BME280;26166;48.264;11.436;2023-06-26T09:19:59;96219.44;;;20.28;56.04
10476;BME280;26166;48.264;11.436;2023-06-26T09:23:00;96216.78;;;20.28;56.18
10476;BME280;26166;48.264;11.436;2023-06-26T09:26:04;96207.94;;;20.27;55.84
10476;BME280;26166;48.264;11.436;2023-06-26T09:29:05;96207.94;;;20.27;55.70
10476;BME280;26166;48.264;11.436;2023-06-26T09:32:07;96203.44;;;20.28;55.61
10476;BME280;26166;48.264;11.436;2023-06-26T09:35:07;96197.06;;;20.29;55.41
10476;BME280;26166;48.264;11.436;2023-06-26T09:38:07;96200.53;;;20.29;55.47
10476;BME280;26166;48.264;11.436;2023-06-26T09:41:08;96195.19;;;20.29;55.25
10476;BME280;26166;48.264;11.436;2023-06-26T09:44:09;96188.25;;;20.28;55.47
10476;BME280;26166;48.264;11.436;2023-06-26T09:47:10;96189.88;;;20.29;55.35
10476;BME280;26166;48.264;11.436;2023-06-26T09:50:21;96185.09;;;20.31;55.28
10476;BME280;26166;48.264;11.436;2023-06-26T09:53:21;96185.72;;;20.33;54.52
10476;BME280;26166;48.264;11.436;2023-06-26T09:56:22;96186.88;;;20.37;54.08
10476;BME280;26166;48.264;11.436;2023-06-26T09:59:23;96181.06;;;20.40;53.93
10476;BME280;26166;48.264;11.436;2023-06-26T10:02:23;96171.56;;;20.45;53.87
10476;BME280;26166;48.264;11.436;2023-06-26T10:05:23;96175.63;;;20.47;53.35
10476;BME280;26166;48.264;11.436;2023-06-26T10:08:24;96176.00;;;20.51;52.99
10476;BME280;26166;48.264;11.436;2023-06-26T10:11:24;96171.84;;;20.55;52.81
10476;BME280;26166;48.264;11.436;2023-06-26T10:14:26;96166.03;;;20.58;52.52
10476;BME280;26166;48.264;11.436;2023-06-26T10:17:30;96163.94;;;20.60;52.42
10476;BME280;26166;48.264;11.436;2023-06-26T10:20:32;96170.34;;;20.59;52.63
10476;BME280;26166;48.264;11.436;2023-06-26T10:23:33;96168.69;;;20.58;52.52
10476;BME280;26166;48.264;11.436;2023-06-26T10:26:35;96160.69;;;20.58;53.03
10476;BME280;26166;48.264;11.436;2023-06-26T10:29:37;96170.09;;;20.60;53.31
10476;BME280;26166;48.264;11.436;2023-06-26T10:32:37;96156.75;;;20.60;53.53
10476;BME280;26166;48.264;11.436;2023-06-26T10:35:42;96156.50;;;20.62;53.60
10476;BME280;26166;48.264;11.436;2023-06-26T10:38:52;96151.19;;;20.62;53.58
10476;BME280;26166;48.264;11.436;2023-06-26T10:41:57;96156.16;;;20.58;53.81
10476;BME280;26166;48.264;11.436;2023-06-26T10:45:14;96153.72;;;20.57;53.69
10476;BME280;26166;48.264;11.436;2023-06-26T10:48:15;96161.97;;;20.55;53.76
10476;BME280;26166;48.264;11.436;2023-06-26T10:51:15;96145.16;;;20.55;54.03
10476;BME280;26166;48.264;11.436;2023-06-26T10:54:16;96163.25;;;20.53;53.68
10476;BME280;26166;48.264;11.436;2023-06-26T10:57:23;96145.97;;;20.55;53.60
10476;BME280;26166;48.264;11.436;2023-06-26T11:00:23;96150.00;;;20.58;53.61
10476;BME280;26166;48.264;11.436;2023-06-26T11:03:23;96151.66;;;20.59;53.39
10476;BME280;26166;48.264;11.436;2023-06-26T11:06:24;96153.72;;;20.57;53.56
10476;BME280;26166;48.264;11.436;2023-06-26T11:09:24;96152.34;;;20.54;53.34
10476;BME280;26166;48.264;11.436;2023-06-26T11:12:34;96149.91;;;20.53;53.96
10476;BME280;26166;48.264;11.436;2023-06-26T11:15:35;96150.38;;;20.50;54.01
10476;BME280;26166;48.264;11.436;2023-06-26T11:18:37;96146.06;;;20.49;54.35
10476;BME280;26166;48.264;11.436;2023-06-26T11:21:38;96139.47;;;20.51;54.68
10476;BME280;26166;48.264;11.436;2023-06-26T11:24:38;96153.38;;;20.53;54.75
10476;BME280;26166;48.264;11.436;2023-06-26T11:30:39;96141.31;;;20.51;54.81
10476;BME280;26166;48.264;11.436;2023-06-26T11:33:45;96137.03;;;20.50;54.98
10476;BME280;26166;48.264;11.436;2023-06-26T11:36:45;96143.41;;;20.49;54.88
10476;BME280;26166;48.264;11.436;2023-06-26T11:39:47;96142.59;;;20.48;55.18
10476;BME280;26166;48.264;11.436;2023-06-26T11:42:48;96142.38;;;20.50;55.36
10476;BME280;26166;48.264;11.436;2023-06-26T11:45:49;96141.09;;;20.52;55.28
10476;BME280;26166;48.264;11.436;2023-06-26T11:48:49;96141.44;;;20.56;55.44
10476;BME280;26166;48.264;11.436;2023-06-26T11:51:49;96142.25;;;20.56;55.15
10476;BME280;26166;48.264;11.436;2023-06-26T11:54:50;96138.78;;;20.56;55.45
10476;BME280;26166;48.264;11.436;2023-06-26T11:57:52;96132.13;;;20.58;55.57
10476;BME280;26166;48.264;11.436;2023-06-26T12:00:52;96132.50;;;20.62;55.58
10476;BME280;26166;48.264;11.436;2023-06-26T12:03:57;96125.09;;;20.64;55.54
10476;BME280;26166;48.264;11.436;2023-06-26T12:06:58;96128.56;;;20.64;55.16
10476;BME280;26166;48.264;11.436;2023-06-26T12:09:58;96126.13;;;20.63;55.39
10476;BME280;26166;48.264;11.436;2023-06-26T12:12:59;96133.53;;;20.61;55.48
10476;BME280;26166;48.264;11.436;2023-06-26T12:16:01;96130.88;;;20.61;55.22
10476;BME280;26166;48.264;11.436;2023-06-26T12:19:02;96129.38;;;20.65;54.94
10476;BME280;26166;48.264;11.436;2023-06-26T12:22:05;96131.69;;;20.73;53.46
10476;BME280;26166;48.264;11.436;2023-06-26T12:25:06;96136.53;;;20.88;52.85
10476;BME280;26166;48.264;11.436;2023-06-26T12:28:15;96128.41;;;20.95;52.04
10476;BME280;26166;48.264;11.436;2023-06-26T12:31:15;96130.13;;;21.01;51.76
10476;BME280;26166;48.264;11.436;2023-06-26T12:34:17;96133.84;;;21.00;52.04
10476;BME280;26166;48.264;11.436;2023-06-26T12:37:18;96127.94;;;20.98;52.05
10476;BME280;26166;48.264;11.436;2023-06-26T12:40:18;96123.06;;;20.95;52.19
10476;BME280;26166;48.264;11.436;2023-06-26T12:43:22;96129.44;;;20.94;52.32
10476;BME280;26166;48.264;11.436;2023-06-26T12:46:33;96125.97;;;20.93;52.43
10476;BME280;26166;48.264;11.436;2023-06-26T12:49:34;96124.94;;;20.94;52.27
10476;BME280;26166;48.264;11.436;2023-06-26T12:52:34;96117.94;;;20.93;52.52
10476;BME280;26166;48.264;11.436;2023-06-26T12:55:35;96125.66;;;20.89;52.52
10476;BME280;26166;48.264;11.436;2023-06-26T12:58:36;96123.53;;;20.91;52.75
10476;BME280;26166;48.264;11.436;2023-06-26T13:01:37;96117.25;;;20.98;52.31
10476;BME280;26166;48.264;11.436;2023-06-26T13:04:37;96116.78;;;21.01;52.08
10476;BME280;26166;48.264;11.436;2023-06-26T13:07:40;96107.16;;;21.00;52.21
10476;BME280;26166;48.264;11.436;2023-06-26T13:10:40;96108.22;;;20.99;52.24
10476;BME280;26166;48.264;11.436;2023-06-26T13:13:40;96103.09;;;20.97;52.00
10476;BME280;26166;48.264;11.436;2023-06-26T13:16:41;96098.56;;;20.98;52.23
10476;BME280;26166;48.264;11.436;2023-06-26T13:19:41;96107.72;;;21.02;52.41
10476;BME280;26166;48.264;11.436;2023-06-26T13:22:41;96108.78;;;21.01;52.64
10476;BME280;26166;48.264;11.436;2023-06-26T13:25:41;96088.47;;;21.00;52.73
10476;BME280;26166;48.264;11.436;2023-06-26T13:28:42;96104.94;;;20.97;52.69
10476;BME280;26166;48.264;11.436;2023-06-26T13:31:42;96103.78;;;20.92;52.79
10476;BME280;26166;48.264;11.436;2023-06-26T13:34:42;96096.28;;;20.89;52.81
10476;BME280;26166;48.264;11.436;2023-06-26T13:37:43;96099.41;;;20.86;52.61
10476;BME280;26166;48.264;11.436;2023-06-26T13:40:43;96093.97;;;20.81;52.76
10476;BME280;26166;48.264;11.436;2023-06-26T13:43:43;96095.81;;;20.81;52.88
10476;BME280;26166;48.264;11.436;2023-06-26T13:46:44;96084.81;;;20.77;53.00
10476;BME280;26166;48.264;11.436;2023-06-26T13:49:44;96081.53;;;20.75;52.64
10476;BME280;26166;48.264;11.436;2023-06-26T13:52:44;96094.31;;;20.73;52.87
10476;BME280;26166;48.264;11.436;2023-06-26T13:55:44;96083.66;;;20.73;52.68
10476;BME280;26166;48.264;11.436;2023-06-26T13:58:44;96080.72;;;20.75;52.32
10476;BME280;26166;48.264;11.436;2023-06-26T14:01:45;96079.13;;;20.74;52.24
10476;BME280;26166;48.264;11.436;2023-06-26T14:04:45;96085.25;;;20.74;52.12
10476;BME280;26166;48.264;11.436;2023-06-26T14:07:45;96074.59;;;20.74;51.60
10476;BME280;26166;48.264;11.436;2023-06-26T14:10:46;96068.78;;;20.77;51.58
10476;BME280;26166;48.264;11.436;2023-06-26T14:13:46;96067.19;;;20.76;51.45
10476;BME280;26166;48.264;11.436;2023-06-26T14:16:46;96070.66;;;20.77;51.86
10476;BME280;26166;48.264;11.436;2023-06-26T14:19:49;96070.41;;;20.78;51.17
10476;BME280;26166;48.264;11.436;2023-06-26T14:22:49;96065.63;;;20.80;51.28
10476;BME280;26166;48.264;11.436;2023-06-26T14:25:49;96058.69;;;20.79;51.55
10476;BME280;26166;48.264;11.436;2023-06-26T14:28:50;96070.41;;;20.78;51.75
10476;BME280;26166;48.264;11.436;2023-06-26T14:31:50;96062.41;;;20.78;51.65
10476;BME280;26166;48.264;11.436;2023-06-26T14:34:50;96061.13;;;20.81;51.83
10476;BME280;26166;48.264;11.436;2023-06-26T14:37:50;96058.69;;;20.79;51.78
10476;BME280;26166;48.264;11.436;2023-06-26T14:40:50;96058.09;;;20.77;52.01
10476;BME280;26166;48.264;11.436;2023-06-26T14:43:51;96058.56;;;20.74;52.55
10476;BME280;26166;48.264;11.436;2023-06-26T14:46:51;96058.00;;;20.72;52.65
10476;BME280;26166;48.264;11.436;2023-06-26T14:49:51;96056.38;;;20.71;52.80
10476;BME280;26166;48.264;11.436;2023-06-26T14:52:51;96053.13;;;20.69;52.55
10476;BME280;26166;48.264;11.436;2023-06-26T14:55:51;96051.84;;;20.72;52.68
10476;BME280;26166;48.264;11.436;2023-06-26T14:58:52;96041.75;;;20.74;52.86
10476;BME280;26166;48.264;11.436;2023-06-26T15:01:52;96043.72;;;20.78;52.41
10476;BME280;26166;48.264;11.436;2023-06-26T15:04:52;96050.66;;;20.79;52.62
10476;BME280;26166;48.264;11.436;2023-06-26T15:07:52;96051.81;;;20.83;52.73
10476;BME280;26166;48.264;11.436;2023-06-26T15:10:53;96049.75;;;20.85;53.14
10476;BME280;26166;48.264;11.436;2023-06-26T15:13:53;96048.44;;;20.88;53.01
10476;BME280;26166;48.264;11.436;2023-06-26T15:16:53;96051.91;;;20.88;52.85
10476;BME280;26166;48.264;11.436;2023-06-26T15:19:54;96058.31;;;20.87;53.04
10476;BME280;26166;48.264;11.436;2023-06-26T15:22:54;96051.34;;;20.86;53.03
10476;BME280;26166;48.264;11.436;2023-06-26T15:25:54;96045.22;;;20.86;53.12
10476;BME280;26166;48.264;11.436;2023-06-26T15:28:54;96048.09;;;20.84;53.16
10476;BME280;26166;48.264;11.436;2023-06-26T15:31:55;96043.25;;;20.81;53.25
10476;BME280;26166;48.264;11.436;2023-06-26T15:34:55;96037.91;;;20.81;53.54
10476;BME280;26166;48.264;11.436;2023-06-26T15:37:55;96026.44;;;20.81;53.57
10476;BME280;26166;48.264;11.436;2023-06-26T15:40:55;96022.59;;;20.77;53.39
10476;BME280;26166;48.264;11.436;2023-06-26T15:43:56;96032.47;;;20.76;53.73
10476;BME280;26166;48.264;11.436;2023-06-26T15:46:56;96026.53;;;20.74;53.69
10476;BME280;26166;48.264;11.436;2023-06-26T15:49:56;96018.53;;;20.74;53.95